Terminal Aerodrome Forecast
Issued by NWS

Home | Current Version | Previous Version | Graphics & Text | Print | Product List | Glossary On
Versions: 1 2 3 4 5 6 7 8 9 10 11 12 13
000
FTUS43 KGRB 260500
TAFATW
TAF
KATW 260520Z 2606/2706 03008G14KT P6SM SCT110
     FM260900 02008KT P6SM SKC
     FM261400 36008G13KT P6SM SKC
     FM262300 30004KT P6SM SKC=

USA.gov is the U.S. government's official web portal to all federal, state and local government web resources and services.